sensor_id;sensor_type;location;lat;lon;timestamp;temperature;humidity
81895;DHT22;71358;45.642;13.758;2024-01-27T00:02:17;22.80;47.50
81895;DHT22;71358;45.642;13.758;2024-01-27T00:05:02;22.80;47.40
81895;DHT22;71358;45.642;13.758;2024-01-27T00:07:47;22.80;47.40
81895;DHT22;71358;45.642;13.758;2024-01-27T00:10:31;22.80;47.30
81895;DHT22;71358;45.642;13.758;2024-01-27T00:13:16;22.80;47.30
81895;DHT22;71358;45.642;13.758;2024-01-27T00:16:01;22.80;47.20
81895;DHT22;71358;45.642;13.758;2024-01-27T00:18:45;22.80;47.20
81895;DHT22;71358;45.642;13.758;2024-01-27T00:21:30;22.80;47.10
81895;DHT22;71358;45.642;13.758;2024-01-27T00:24:14;22.80;47.10
81895;DHT22;71358;45.642;13.758;2024-01-27T00:27:00;22.80;47.10
81895;DHT22;71358;45.642;13.758;2024-01-27T00:29:45;22.80;47.00
81895;DHT22;71358;45.642;13.758;2024-01-27T00:32:29;22.80;47.10
81895;DHT22;71358;45.642;13.758;2024-01-27T00:35:14;22.80;47.00
81895;DHT22;71358;45.642;13.758;2024-01-27T00:37:59;22.80;47.00
81895;DHT22;71358;45.642;13.758;2024-01-27T00:40:44;22.80;47.00
81895;DHT22;71358;45.642;13.758;2024-01-27T00:43:29;22.80;46.90
81895;DHT22;71358;45.642;13.758;2024-01-27T00:46:13;22.80;46.90
81895;DHT22;71358;45.642;13.758;2024-01-27T00:48:58;22.80;46.90
81895;DHT22;71358;45.642;13.758;2024-01-27T00:51:42;22.90;46.90
81895;DHT22;71358;45.642;13.758;2024-01-27T00:54:27;22.80;46.80
81895;DHT22;71358;45.642;13.758;2024-01-27T00:57:11;22.80;46.80
81895;DHT22;71358;45.642;13.758;2024-01-27T00:59:56;22.80;46.70
81895;DHT22;71358;45.642;13.758;2024-01-27T01:02:40;22.80;46.60
81895;DHT22;71358;45.642;13.758;2024-01-27T01:05:25;22.80;46.50
81895;DHT22;71358;45.642;13.758;2024-01-27T01:08:10;22.80;46.50
81895;DHT22;71358;45.642;13.758;2024-01-27T01:10:54;22.80;46.40
81895;DHT22;71358;45.642;13.758;2024-01-27T01:13:39;22.80;46.40
81895;DHT22;71358;45.642;13.758;2024-01-27T01:16:24;22.80;46.30
81895;DHT22;71358;45.642;13.758;2024-01-27T01:19:08;22.80;46.40
81895;DHT22;71358;45.642;13.758;2024-01-27T01:21:53;22.80;46.30
81895;DHT22;71358;45.642;13.758;2024-01-27T01:24:37;22.80;46.20
81895;DHT22;71358;45.642;13.758;2024-01-27T01:27:22;22.80;46.20
81895;DHT22;71358;45.642;13.758;2024-01-27T01:30:07;22.80;46.10
81895;DHT22;71358;45.642;13.758;2024-01-27T01:32:51;22.80;46.10
81895;DHT22;71358;45.642;13.758;2024-01-27T01:35:36;22.80;46.10
81895;DHT22;71358;45.642;13.758;2024-01-27T01:38:22;22.80;46.10
81895;DHT22;71358;45.642;13.758;2024-01-27T01:41:06;22.80;46.10
81895;DHT22;71358;45.642;13.758;2024-01-27T01:43:51;22.80;46.10
81895;DHT22;71358;45.642;13.758;2024-01-27T01:46:36;22.80;46.00
81895;DHT22;71358;45.642;13.758;2024-01-27T01:49:20;22.80;46.00
81895;DHT22;71358;45.642;13.758;2024-01-27T01:52:05;22.80;45.90
81895;DHT22;71358;45.642;13.758;2024-01-27T01:54:50;22.80;45.90
81895;DHT22;71358;45.642;13.758;2024-01-27T01:57:35;22.80;45.90
81895;DHT22;71358;45.642;13.758;2024-01-27T02:00:20;22.80;45.90
81895;DHT22;71358;45.642;13.758;2024-01-27T02:03:04;22.70;45.80
81895;DHT22;71358;45.642;13.758;2024-01-27T02:05:49;22.70;45.80
81895;DHT22;71358;45.642;13.758;2024-01-27T02:08:33;22.70;45.80
81895;DHT22;71358;45.642;13.758;2024-01-27T02:11:18;22.70;45.80
81895;DHT22;71358;45.642;13.758;2024-01-27T02:14:03;22.70;45.80
81895;DHT22;71358;45.642;13.758;2024-01-27T02:16:48;22.70;45.80
81895;DHT22;71358;45.642;13.758;2024-01-27T02:19:32;22.70;45.80
81895;DHT22;71358;45.642;13.758;2024-01-27T02:22:17;22.70;45.80
81895;DHT22;71358;45.642;13.758;2024-01-27T02:25:04;22.70;45.70
81895;DHT22;71358;45.642;13.758;2024-01-27T02:27:49;22.70;45.70
81895;DHT22;71358;45.642;13.758;2024-01-27T02:30:33;22.70;45.70
81895;DHT22;71358;45.642;13.758;2024-01-27T02:33:18;22.70;45.70
81895;DHT22;71358;45.642;13.758;2024-01-27T02:36:03;22.70;45.70
81895;DHT22;71358;45.642;13.758;2024-01-27T02:38:47;22.70;45.60
81895;DHT22;71358;45.642;13.758;2024-01-27T02:41:32;22.70;45.70
81895;DHT22;71358;45.642;13.758;2024-01-27T02:44:22;22.70;45.60
81895;DHT22;71358;45.642;13.758;2024-01-27T02:47:06;22.60;45.60
81895;DHT22;71358;45.642;13.758;2024-01-27T02:49:51;22.60;45.60
81895;DHT22;71358;45.642;13.758;2024-01-27T02:52:35;22.60;45.60
81895;DHT22;71358;45.642;13.758;2024-01-27T02:55:20;22.60;45.60
81895;DHT22;71358;45.642;13.758;2024-01-27T02:58:04;22.70;45.70
81895;DHT22;71358;45.642;13.758;2024-01-27T03:00:49;22.60;45.70
81895;DHT22;71358;45.642;13.758;2024-01-27T03:03:34;22.60;45.70
81895;DHT22;71358;45.642;13.758;2024-01-27T03:06:18;22.60;45.60
81895;DHT22;71358;45.642;13.758;2024-01-27T03:09:03;22.60;45.60
81895;DHT22;71358;45.642;13.758;2024-01-27T03:11:47;22.60;45.50
81895;DHT22;71358;45.642;13.758;2024-01-27T03:14:32;22.60;45.50
81895;DHT22;71358;45.642;13.758;2024-01-27T03:17:16;22.60;45.50
81895;DHT22;71358;45.642;13.758;2024-01-27T03:20:01;22.60;45.40
81895;DHT22;71358;45.642;13.758;2024-01-27T03:22:46;22.60;45.40
81895;DHT22;71358;45.642;13.758;2024-01-27T03:25:30;22.60;45.40
81895;DHT22;71358;45.642;13.758;2024-01-27T03:28:15;22.60;45.40
81895;DHT22;71358;45.642;13.758;2024-01-27T03:31:00;22.60;45.30
81895;DHT22;71358;45.642;13.758;2024-01-27T03:33:44;22.60;45.30
81895;DHT22;71358;45.642;13.758;2024-01-27T03:36:29;22.60;45.30
81895;DHT22;71358;45.642;13.758;2024-01-27T03:39:14;22.60;45.40
81895;DHT22;71358;45.642;13.758;2024-01-27T03:41:58;22.50;45.30
81895;DHT22;71358;45.642;13.758;2024-01-27T03:44:43;22.50;45.30
81895;DHT22;71358;45.642;13.758;2024-01-27T03:47:27;22.50;45.30
81895;DHT22;71358;45.642;13.758;2024-01-27T03:50:12;22.50;45.30
81895;DHT22;71358;45.642;13.758;2024-01-27T03:52:56;22.50;45.30
81895;DHT22;71358;45.642;13.758;2024-01-27T03:55:41;22.50;45.30
81895;DHT22;71358;45.642;13.758;2024-01-27T03:58:26;22.50;45.30
81895;DHT22;71358;45.642;13.758;2024-01-27T04:01:10;22.50;45.30
81895;DHT22;71358;45.642;13.758;2024-01-27T04:03:55;22.50;45.30
81895;DHT22;71358;45.642;13.758;2024-01-27T04:06:40;22.50;45.30
81895;DHT22;71358;45.642;13.758;2024-01-27T04:09:25;22.50;45.30
81895;DHT22;71358;45.642;13.758;2024-01-27T04:12:09;22.50;45.30
81895;DHT22;71358;45.642;13.758;2024-01-27T04:14:54;22.50;45.20
81895;DHT22;71358;45.642;13.758;2024-01-27T04:17:38;22.50;45.30
81895;DHT22;71358;45.642;13.758;2024-01-27T04:20:24;22.50;45.30
81895;DHT22;71358;45.642;13.758;2024-01-27T04:23:08;22.50;45.30
81895;DHT22;71358;45.642;13.758;2024-01-27T04:25:53;22.50;45.20
81895;DHT22;71358;45.642;13.758;2024-01-27T04:28:37;22.50;45.20
81895;DHT22;71358;45.642;13.758;2024-01-27T04:31:22;22.50;45.10
81895;DHT22;71358;45.642;13.758;2024-01-27T04:34:07;22.40;45.10
81895;DHT22;71358;45.642;13.758;2024-01-27T04:36:51;22.40;45.10
81895;DHT22;71358;45.642;13.758;2024-01-27T04:39:37;22.40;45.10
81895;DHT22;71358;45.642;13.758;2024-01-27T04:42:21;22.40;45.00
81895;DHT22;71358;45.642;13.758;2024-01-27T04:45:07;22.40;45.10
81895;DHT22;71358;45.642;13.758;2024-01-27T04:47:52;22.40;45.10
81895;DHT22;71358;45.642;13.758;2024-01-27T04:50:37;22.40;45.10
81895;DHT22;71358;45.642;13.758;2024-01-27T04:53:22;22.40;45.10
81895;DHT22;71358;45.642;13.758;2024-01-27T04:56:06;22.40;45.20
81895;DHT22;71358;45.642;13.758;2024-01-27T04:58:52;22.40;45.20
81895;DHT22;71358;45.642;13.758;2024-01-27T05:01:36;22.40;45.20
81895;DHT22;71358;45.642;13.758;2024-01-27T05:04:21;22.40;45.20
81895;DHT22;71358;45.642;13.758;2024-01-27T05:07:05;22.40;45.10
81895;DHT22;71358;45.642;13.758;2024-01-27T05:09:50;22.40;45.10
81895;DHT22;71358;45.642;13.758;2024-01-27T05:12:34;22.30;45.00
81895;DHT22;71358;45.642;13.758;2024-01-27T05:15:19;22.30;45.10
81895;DHT22;71358;45.642;13.758;2024-01-27T05:18:04;22.30;45.20
81895;DHT22;71358;45.642;13.758;2024-01-27T05:20:48;22.30;45.20
81895;DHT22;71358;45.642;13.758;2024-01-27T05:23:33;22.30;45.20
81895;DHT22;71358;45.642;13.758;2024-01-27T05:26:17;22.30;45.20
81895;DHT22;71358;45.642;13.758;2024-01-27T05:29:02;22.30;45.20
81895;DHT22;71358;45.642;13.758;2024-01-27T05:31:47;22.30;45.30
81895;DHT22;71358;45.642;13.758;2024-01-27T05:34:31;22.30;45.30
81895;DHT22;71358;45.642;13.758;2024-01-27T05:37:16;22.30;45.30
81895;DHT22;71358;45.642;13.758;2024-01-27T05:40:01;22.30;45.30
81895;DHT22;71358;45.642;13.758;2024-01-27T05:42:46;22.30;45.40
81895;DHT22;71358;45.642;13.758;2024-01-27T05:45:30;22.30;45.30
81895;DHT22;71358;45.642;13.758;2024-01-27T05:48:15;22.30;45.30
81895;DHT22;71358;45.642;13.758;2024-01-27T05:51:01;22.30;45.20
81895;DHT22;71358;45.642;13.758;2024-01-27T05:53:46;22.30;45.10
81895;DHT22;71358;45.642;13.758;2024-01-27T05:56:30;22.30;45.10
81895;DHT22;71358;45.642;13.758;2024-01-27T05:59:15;22.30;45.00
81895;DHT22;71358;45.642;13.758;2024-01-27T06:01:59;22.30;45.00
81895;DHT22;71358;45.642;13.758;2024-01-27T06:04:44;22.20;45.00
81895;DHT22;71358;45.642;13.758;2024-01-27T06:07:29;22.20;44.90
81895;DHT22;71358;45.642;13.758;2024-01-27T06:10:13;22.20;45.00
81895;DHT22;71358;45.642;13.758;2024-01-27T06:12:58;22.20;45.10
81895;DHT22;71358;45.642;13.758;2024-01-27T06:15:43;22.20;45.10
81895;DHT22;71358;45.642;13.758;2024-01-27T06:18:27;22.30;45.10
81895;DHT22;71358;45.642;13.758;2024-01-27T06:21:12;22.20;45.00
81895;DHT22;71358;45.642;13.758;2024-01-27T06:23:57;22.20;45.00
81895;DHT22;71358;45.642;13.758;2024-01-27T06:26:42;22.20;45.00
81895;DHT22;71358;45.642;13.758;2024-01-27T06:29:26;22.20;45.00
81895;DHT22;71358;45.642;13.758;2024-01-27T06:32:11;22.20;44.90
81895;DHT22;71358;45.642;13.758;2024-01-27T06:34:55;22.20;44.90
81895;DHT22;71358;45.642;13.758;2024-01-27T06:37:40;22.20;45.00
81895;DHT22;71358;45.642;13.758;2024-01-27T06:40:24;22.20;45.00
81895;DHT22;71358;45.642;13.758;2024-01-27T06:43:12;22.10;44.90
81895;DHT22;71358;45.642;13.758;2024-01-27T06:45:57;22.10;45.50
81895;DHT22;71358;45.642;13.758;2024-01-27T06:48:42;22.10;44.90
81895;DHT22;71358;45.642;13.758;2024-01-27T06:51:26;22.10;44.80
81895;DHT22;71358;45.642;13.758;2024-01-27T06:54:11;22.10;44.80
81895;DHT22;71358;45.642;13.758;2024-01-27T06:56:55;22.10;44.80
81895;DHT22;71358;45.642;13.758;2024-01-27T06:59:40;22.10;44.80
81895;DHT22;71358;45.642;13.758;2024-01-27T07:02:25;22.10;44.80
81895;DHT22;71358;45.642;13.758;2024-01-27T07:05:13;22.10;44.80
81895;DHT22;71358;45.642;13.758;2024-01-27T07:07:58;22.10;44.80
81895;DHT22;71358;45.642;13.758;2024-01-27T07:10:42;22.10;44.80
81895;DHT22;71358;45.642;13.758;2024-01-27T07:13:27;22.10;44.90
81895;DHT22;71358;45.642;13.758;2024-01-27T07:16:13;22.10;44.90
81895;DHT22;71358;45.642;13.758;2024-01-27T07:18:58;22.10;44.90
81895;DHT22;71358;45.642;13.758;2024-01-27T07:21:42;22.10;44.90
81895;DHT22;71358;45.642;13.758;2024-01-27T07:24:27;22.10;44.90
81895;DHT22;71358;45.642;13.758;2024-01-27T07:27:14;22.10;44.90
81895;DHT22;71358;45.642;13.758;2024-01-27T07:29:59;22.10;45.50
81895;DHT22;71358;45.642;13.758;2024-01-27T07:32:43;22.10;44.90
81895;DHT22;71358;45.642;13.758;2024-01-27T07:35:29;22.00;44.90
81895;DHT22;71358;45.642;13.758;2024-01-27T07:38:13;22.00;44.90
81895;DHT22;71358;45.642;13.758;2024-01-27T07:40:58;22.10;45.00
81895;DHT22;71358;45.642;13.758;2024-01-27T07:43:43;22.00;45.00
81895;DHT22;71358;45.642;13.758;2024-01-27T07:46:27;22.00;45.00
81895;DHT22;71358;45.642;13.758;2024-01-27T07:49:12;22.00;45.00
81895;DHT22;71358;45.642;13.758;2024-01-27T07:51:59;22.00;45.00
81895;DHT22;71358;45.642;13.758;2024-01-27T07:54:43;22.00;45.00
81895;DHT22;71358;45.642;13.758;2024-01-27T07:57:28;22.00;45.10
81895;DHT22;71358;45.642;13.758;2024-01-27T08:00:13;22.00;45.10
81895;DHT22;71358;45.642;13.758;2024-01-27T08:02:57;22.00;45.10
81895;DHT22;71358;45.642;13.758;2024-01-27T08:05:42;22.00;45.00
81895;DHT22;71358;45.642;13.758;2024-01-27T08:08:26;22.00;45.00
81895;DHT22;71358;45.642;13.758;2024-01-27T08:11:11;22.00;44.90
81895;DHT22;71358;45.642;13.758;2024-01-27T08:13:55;22.00;44.90
81895;DHT22;71358;45.642;13.758;2024-01-27T08:16:39;22.00;44.90
81895;DHT22;71358;45.642;13.758;2024-01-27T08:19:24;22.00;44.90
81895;DHT22;71358;45.642;13.758;2024-01-27T08:22:09;22.00;44.90
81895;DHT22;71358;45.642;13.758;2024-01-27T08:24:53;21.90;44.80
81895;DHT22;71358;45.642;13.758;2024-01-27T08:27:38;22.00;44.90
81895;DHT22;71358;45.642;13.758;2024-01-27T08:30:22;21.90;44.80
81895;DHT22;71358;45.642;13.758;2024-01-27T08:33:07;21.90;44.80
81895;DHT22;71358;45.642;13.758;2024-01-27T08:35:51;21.90;44.80
81895;DHT22;71358;45.642;13.758;2024-01-27T08:38:36;21.90;44.90
81895;DHT22;71358;45.642;13.758;2024-01-27T08:41:21;21.90;44.90
81895;DHT22;71358;45.642;13.758;2024-01-27T08:44:05;21.90;45.00
81895;DHT22;71358;45.642;13.758;2024-01-27T08:46:50;21.90;45.10
81895;DHT22;71358;45.642;13.758;2024-01-27T08:49:35;21.90;45.20
81895;DHT22;71358;45.642;13.758;2024-01-27T08:52:19;21.90;45.20
81895;DHT22;71358;45.642;13.758;2024-01-27T08:55:04;21.90;45.20
81895;DHT22;71358;45.642;13.758;2024-01-27T08:57:48;21.90;45.20
81895;DHT22;71358;45.642;13.758;2024-01-27T09:00:33;21.80;45.20
81895;DHT22;71358;45.642;13.758;2024-01-27T09:03:17;21.80;45.10
81895;DHT22;71358;45.642;13.758;2024-01-27T09:06:03;21.80;45.80
81895;DHT22;71358;45.642;13.758;2024-01-27T09:08:48;21.80;45.10
81895;DHT22;71358;45.642;13.758;2024-01-27T09:11:32;21.80;45.20
81895;DHT22;71358;45.642;13.758;2024-01-27T09:14:18;21.80;45.20
81895;DHT22;71358;45.642;13.758;2024-01-27T09:17:03;21.80;45.40
81895;DHT22;71358;45.642;13.758;2024-01-27T09:19:47;21.80;45.70
81895;DHT22;71358;45.642;13.758;2024-01-27T09:22:32;21.90;45.80
81895;DHT22;71358;45.642;13.758;2024-01-27T09:25:17;21.90;45.80
81895;DHT22;71358;45.642;13.758;2024-01-27T09:28:01;22.00;46.10
81895;DHT22;71358;45.642;13.758;2024-01-27T09:30:46;22.10;45.90
81895;DHT22;71358;45.642;13.758;2024-01-27T09:33:30;22.10;45.70
81895;DHT22;71358;45.642;13.758;2024-01-27T09:36:14;22.10;45.60
81895;DHT22;71358;45.642;13.758;2024-01-27T09:38:59;22.10;45.50
81895;DHT22;71358;45.642;13.758;2024-01-27T09:41:44;22.20;45.70
81895;DHT22;71358;45.642;13.758;2024-01-27T09:44:29;22.20;45.60
81895;DHT22;71358;45.642;13.758;2024-01-27T09:47:15;22.20;45.40
81895;DHT22;71358;45.642;13.758;2024-01-27T09:49:59;22.20;45.50
81895;DHT22;71358;45.642;13.758;2024-01-27T09:52:44;22.20;45.40
81895;DHT22;71358;45.642;13.758;2024-01-27T09:55:28;22.20;45.20
81895;DHT22;71358;45.642;13.758;2024-01-27T09:58:13;22.30;45.20
81895;DHT22;71358;45.642;13.758;2024-01-27T10:01:00;22.30;45.00
81895;DHT22;71358;45.642;13.758;2024-01-27T10:03:46;22.30;45.00
81895;DHT22;71358;45.642;13.758;2024-01-27T10:06:30;22.30;44.80
81895;DHT22;71358;45.642;13.758;2024-01-27T10:09:16;22.30;44.80
81895;DHT22;71358;45.642;13.758;2024-01-27T10:12:02;22.20;44.60
81895;DHT22;71358;45.642;13.758;2024-01-27T10:14:47;22.20;44.50
81895;DHT22;71358;45.642;13.758;2024-01-27T10:17:32;22.10;44.40
81895;DHT22;71358;45.642;13.758;2024-01-27T10:20:20;22.20;44.40
81895;DHT22;71358;45.642;13.758;2024-01-27T10:23:12;22.10;44.30
81895;DHT22;71358;45.642;13.758;2024-01-27T10:25:57;22.00;44.20
81895;DHT22;71358;45.642;13.758;2024-01-27T10:28:41;22.00;44.30
81895;DHT22;71358;45.642;13.758;2024-01-27T10:31:27;22.00;44.30
81895;DHT22;71358;45.642;13.758;2024-01-27T10:34:11;21.90;44.30
81895;DHT22;71358;45.642;13.758;2024-01-27T10:36:59;21.90;44.40
81895;DHT22;71358;45.642;13.758;2024-01-27T10:39:44;21.90;44.50
81895;DHT22;71358;45.642;13.758;2024-01-27T10:42:29;21.90;44.60
81895;DHT22;71358;45.642;13.758;2024-01-27T10:45:17;21.90;44.60
81895;DHT22;71358;45.642;13.758;2024-01-27T10:48:03;21.90;44.70
81895;DHT22;71358;45.642;13.758;2024-01-27T10:50:49;21.80;44.80
81895;DHT22;71358;45.642;13.758;2024-01-27T10:53:34;21.80;45.00
81895;DHT22;71358;45.642;13.758;2024-01-27T10:56:20;21.80;45.20
81895;DHT22;71358;45.642;13.758;2024-01-27T10:59:05;21.80;45.70
81895;DHT22;71358;45.642;13.758;2024-01-27T11:01:54;21.80;46.10
81895;DHT22;71358;45.642;13.758;2024-01-27T11:04:38;21.80;46.60
81895;DHT22;71358;45.642;13.758;2024-01-27T11:07:23;21.80;46.90
81895;DHT22;71358;45.642;13.758;2024-01-27T11:10:08;21.80;47.10
81895;DHT22;71358;45.642;13.758;2024-01-27T11:12:53;21.80;47.40
81895;DHT22;71358;45.642;13.758;2024-01-27T11:15:43;21.80;47.70
81895;DHT22;71358;45.642;13.758;2024-01-27T11:18:34;21.70;47.90
81895;DHT22;71358;45.642;13.758;2024-01-27T11:21:19;21.80;48.20
81895;DHT22;71358;45.642;13.758;2024-01-27T11:24:17;21.90;48.30
81895;DHT22;71358;45.642;13.758;2024-01-27T11:27:06;21.90;48.30
81895;DHT22;71358;45.642;13.758;2024-01-27T11:29:51;22.00;48.20
81895;DHT22;71358;45.642;13.758;2024-01-27T11:32:36;22.00;48.20
81895;DHT22;71358;45.642;13.758;2024-01-27T11:35:20;21.90;48.20
81895;DHT22;71358;45.642;13.758;2024-01-27T11:38:05;22.00;48.30
81895;DHT22;71358;45.642;13.758;2024-01-27T11:40:50;21.90;48.30
81895;DHT22;71358;45.642;13.758;2024-01-27T11:43:34;21.90;48.50
81895;DHT22;71358;45.642;13.758;2024-01-27T11:46:19;21.90;48.60
81895;DHT22;71358;45.642;13.758;2024-01-27T11:49:05;21.90;48.70
81895;DHT22;71358;45.642;13.758;2024-01-27T11:51:49;21.90;48.90
81895;DHT22;71358;45.642;13.758;2024-01-27T11:54:34;21.90;49.00
81895;DHT22;71358;45.642;13.758;2024-01-27T11:57:20;21.90;49.10
81895;DHT22;71358;45.642;13.758;2024-01-27T12:00:05;21.90;49.10
81895;DHT22;71358;45.642;13.758;2024-01-27T12:02:51;21.90;49.20
81895;DHT22;71358;45.642;13.758;2024-01-27T12:05:36;21.90;49.00
81895;DHT22;71358;45.642;13.758;2024-01-27T12:08:20;21.90;49.00
81895;DHT22;71358;45.642;13.758;2024-01-27T12:11:05;21.90;49.00
81895;DHT22;71358;45.642;13.758;2024-01-27T12:13:50;21.90;49.00
81895;DHT22;71358;45.642;13.758;2024-01-27T12:16:34;21.90;49.00
81895;DHT22;71358;45.642;13.758;2024-01-27T12:19:19;21.90;48.90
81895;DHT22;71358;45.642;13.758;2024-01-27T12:22:04;21.80;48.80
81895;DHT22;71358;45.642;13.758;2024-01-27T12:24:49;21.80;48.80
81895;DHT22;71358;45.642;13.758;2024-01-27T12:27:34;21.80;48.80
81895;DHT22;71358;45.642;13.758;2024-01-27T12:30:18;21.80;48.80
81895;DHT22;71358;45.642;13.758;2024-01-27T12:33:09;21.80;48.80
81895;DHT22;71358;45.642;13.758;2024-01-27T12:35:56;21.80;48.70
81895;DHT22;71358;45.642;13.758;2024-01-27T12:38:41;21.80;48.70
81895;DHT22;71358;45.642;13.758;2024-01-27T12:41:28;21.80;48.60
81895;DHT22;71358;45.642;13.758;2024-01-27T12:44:19;21.80;48.60
81895;DHT22;71358;45.642;13.758;2024-01-27T12:47:04;21.70;48.60
81895;DHT22;71358;45.642;13.758;2024-01-27T12:49:47;21.70;48.60
81895;DHT22;71358;45.642;13.758;2024-01-27T12:52:31;21.80;48.60
81895;DHT22;71358;45.642;13.758;2024-01-27T12:55:16;21.80;48.60
81895;DHT22;71358;45.642;13.758;2024-01-27T12:58:00;21.70;48.50
81895;DHT22;71358;45.642;13.758;2024-01-27T13:00:45;21.70;48.50
81895;DHT22;71358;45.642;13.758;2024-01-27T13:03:29;21.70;48.40
81895;DHT22;71358;45.642;13.758;2024-01-27T13:06:13;21.80;48.50
81895;DHT22;71358;45.642;13.758;2024-01-27T13:08:58;21.70;48.40
81895;DHT22;71358;45.642;13.758;2024-01-27T13:11:43;21.80;48.50
81895;DHT22;71358;45.642;13.758;2024-01-27T13:14:28;21.70;48.30
81895;DHT22;71358;45.642;13.758;2024-01-27T13:17:13;21.70;48.30
81895;DHT22;71358;45.642;13.758;2024-01-27T13:19:58;21.70;48.30
81895;DHT22;71358;45.642;13.758;2024-01-27T13:22:43;21.70;48.30
81895;DHT22;71358;45.642;13.758;2024-01-27T13:25:29;21.70;48.20
81895;DHT22;71358;45.642;13.758;2024-01-27T13:28:14;21.70;48.20
81895;DHT22;71358;45.642;13.758;2024-01-27T13:30:58;21.70;48.20
81895;DHT22;71358;45.642;13.758;2024-01-27T13:33:43;21.70;48.10
81895;DHT22;71358;45.642;13.758;2024-01-27T13:36:27;21.70;48.10
81895;DHT22;71358;45.642;13.758;2024-01-27T13:39:12;21.70;48.10
81895;DHT22;71358;45.642;13.758;2024-01-27T13:41:57;21.70;48.10
81895;DHT22;71358;45.642;13.758;2024-01-27T13:44:42;21.70;48.10
81895;DHT22;71358;45.642;13.758;2024-01-27T13:47:27;21.60;48.00
81895;DHT22;71358;45.642;13.758;2024-01-27T13:50:12;21.70;48.10
81895;DHT22;71358;45.642;13.758;2024-01-27T13:52:57;21.60;48.10
81895;DHT22;71358;45.642;13.758;2024-01-27T13:55:42;21.60;48.00
81895;DHT22;71358;45.642;13.758;2024-01-27T13:58:28;21.60;48.00
81895;DHT22;71358;45.642;13.758;2024-01-27T14:01:12;21.60;48.00
81895;DHT22;71358;45.642;13.758;2024-01-27T14:03:57;21.60;48.00
81895;DHT22;71358;45.642;13.758;2024-01-27T14:06:41;21.70;48.00
81895;DHT22;71358;45.642;13.758;2024-01-27T14:09:26;21.70;48.00
81895;DHT22;71358;45.642;13.758;2024-01-27T14:12:11;21.60;47.90
81895;DHT22;71358;45.642;13.758;2024-01-27T14:15:05;21.60;47.90
81895;DHT22;71358;45.642;13.758;2024-01-27T14:17:54;21.60;48.00
81895;DHT22;71358;45.642;13.758;2024-01-27T14:20:39;21.60;48.00
81895;DHT22;71358;45.642;13.758;2024-01-27T14:23:23;21.60;48.00
81895;DHT22;71358;45.642;13.758;2024-01-27T14:26:08;21.60;48.10
81895;DHT22;71358;45.642;13.758;2024-01-27T14:28:58;21.50;48.00
81895;DHT22;71358;45.642;13.758;2024-01-27T14:31:43;21.50;48.70
81895;DHT22;71358;45.642;13.758;2024-01-27T14:34:27;21.60;48.20
81895;DHT22;71358;45.642;13.758;2024-01-27T14:37:12;21.50;48.30
81895;DHT22;71358;45.642;13.758;2024-01-27T14:39:57;21.60;48.50
81895;DHT22;71358;45.642;13.758;2024-01-27T14:42:41;21.60;48.50
81895;DHT22;71358;45.642;13.758;2024-01-27T14:45:26;21.60;48.60
81895;DHT22;71358;45.642;13.758;2024-01-27T14:48:11;21.60;48.60
81895;DHT22;71358;45.642;13.758;2024-01-27T14:50:55;21.60;48.70
81895;DHT22;71358;45.642;13.758;2024-01-27T14:53:45;21.50;48.70
81895;DHT22;71358;45.642;13.758;2024-01-27T14:56:31;21.60;48.70
81895;DHT22;71358;45.642;13.758;2024-01-27T14:59:15;21.60;48.70
81895;DHT22;71358;45.642;13.758;2024-01-27T15:02:00;21.60;48.70
81895;DHT22;71358;45.642;13.758;2024-01-27T15:04:44;21.50;48.70
81895;DHT22;71358;45.642;13.758;2024-01-27T15:07:29;21.50;48.70
81895;DHT22;71358;45.642;13.758;2024-01-27T15:10:15;21.50;48.70
81895;DHT22;71358;45.642;13.758;2024-01-27T15:12:59;21.50;49.30
81895;DHT22;71358;45.642;13.758;2024-01-27T15:15:44;21.60;48.80
81895;DHT22;71358;45.642;13.758;2024-01-27T15:18:29;21.50;48.70
81895;DHT22;71358;45.642;13.758;2024-01-27T15:21:13;21.50;48.70
81895;DHT22;71358;45.642;13.758;2024-01-27T15:23:58;21.50;48.70
81895;DHT22;71358;45.642;13.758;2024-01-27T15:26:43;21.50;48.70
81895;DHT22;71358;45.642;13.758;2024-01-27T15:29:27;21.50;48.70
81895;DHT22;71358;45.642;13.758;2024-01-27T15:32:12;21.50;48.80
81895;DHT22;71358;45.642;13.758;2024-01-27T15:34:56;21.50;48.80
81895;DHT22;71358;45.642;13.758;2024-01-27T15:37:41;21.50;48.90
81895;DHT22;71358;45.642;13.758;2024-01-27T15:40:26;21.50;49.00
81895;DHT22;71358;45.642;13.758;2024-01-27T15:43:10;21.50;49.00
81895;DHT22;71358;45.642;13.758;2024-01-27T15:45:55;21.50;49.00
81895;DHT22;71358;45.642;13.758;2024-01-27T15:48:39;21.50;49.00
81895;DHT22;71358;45.642;13.758;2024-01-27T15:51:24;21.50;49.00
81895;DHT22;71358;45.642;13.758;2024-01-27T15:54:09;21.50;49.00
81895;DHT22;71358;45.642;13.758;2024-01-27T15:56:53;21.50;49.00
81895;DHT22;71358;45.642;13.758;2024-01-27T15:59:38;21.50;49.00
81895;DHT22;71358;45.642;13.758;2024-01-27T16:02:23;21.50;49.00
81895;DHT22;71358;45.642;13.758;2024-01-27T16:05:08;21.50;49.10
81895;DHT22;71358;45.642;13.758;2024-01-27T16:07:52;21.50;49.10
81895;DHT22;71358;45.642;13.758;2024-01-27T16:10:37;21.50;49.00
81895;DHT22;71358;45.642;13.758;2024-01-27T16:13:22;21.50;49.00
81895;DHT22;71358;45.642;13.758;2024-01-27T16:16:07;21.50;49.10
81895;DHT22;71358;45.642;13.758;2024-01-27T16:18:52;21.50;49.00
81895;DHT22;71358;45.642;13.758;2024-01-27T16:21:36;21.50;49.00
81895;DHT22;71358;45.642;13.758;2024-01-27T16:24:20;21.50;49.00
81895;DHT22;71358;45.642;13.758;2024-01-27T16:27:05;21.50;49.10
81895;DHT22;71358;45.642;13.758;2024-01-27T16:29:50;21.50;49.10
81895;DHT22;71358;45.642;13.758;2024-01-27T16:32:35;21.50;49.20
81895;DHT22;71358;45.642;13.758;2024-01-27T16:35:19;21.50;49.20
81895;DHT22;71358;45.642;13.758;2024-01-27T16:38:04;21.50;49.20
81895;DHT22;71358;45.642;13.758;2024-01-27T16:40:49;21.50;49.20
81895;DHT22;71358;45.642;13.758;2024-01-27T16:43:33;21.50;49.30
81895;DHT22;71358;45.642;13.758;2024-01-27T16:46:18;21.60;49.30
81895;DHT22;71358;45.642;13.758;2024-01-27T16:49:03;21.60;49.30
81895;DHT22;71358;45.642;13.758;2024-01-27T16:51:48;21.60;49.20
81895;DHT22;71358;45.642;13.758;2024-01-27T16:54:33;21.70;49.30
81895;DHT22;71358;45.642;13.758;2024-01-27T16:57:18;21.60;49.20
81895;DHT22;71358;45.642;13.758;2024-01-27T17:00:02;21.60;49.20
81895;DHT22;71358;45.642;13.758;2024-01-27T17:02:47;21.70;49.30
81895;DHT22;71358;45.642;13.758;2024-01-27T17:05:45;21.70;49.30